Time;durP1;ratioP1;P1;durP2;ratioP2;P2;SDS_P1;SDS_P2;PMS_P1;PMS_P2;Temp;Humidity;BMP_temperature;BMP_pressure;BME280_temperature;BME280_humidity;BME280_pressure;Samples;Min_cycle;Max_cycle;Signal;HPM_P1;HPM_P2
2023/01/04 00:02:37;;;;;;;92.77;44.60;;;;;;;0.39;97.56;101776.37;3387265;86;98742;-88
2023/01/04 00:07:38;;;;;;;71.17;35.10;;;;;;;0.35;97.57;101765.83;3396353;82;31443;-88
2023/01/04 00:12:39;;;;;;;72.62;34.55;;;;;;;0.26;97.42;101764.23;3460715;84;98814;-90
2023/01/04 00:17:39;;;;;;;71.80;34.90;;;;;;;0.21;97.79;101764.25;3474162;83;31433;-87
2023/01/04 00:22:40;;;;;;;72.70;33.13;;;;;;;0.14;97.79;101744.79;3461599;84;98816;-87
2023/01/04 00:27:41;;;;;;;69.50;33.90;;;;;;;0.09;97.75;101746.69;3463734;84;32106;-87
2023/01/04 00:32:42;;;;;;;73.50;32.83;;;;;;;0.03;97.95;101740.50;3463480;84;98700;-86
2023/01/04 00:37:43;;;;;;;62.00;31.07;;;;;;;0.03;98.45;101752.67;3467303;83;29568;-86
2023/01/04 00:42:44;;;;;;;63.60;32.60;;;;;;;-0.01;98.53;101739.41;3464989;82;98742;-86
2023/01/04 00:47:44;;;;;;;65.43;31.57;;;;;;;-0.03;98.48;101743.48;3468580;84;35232;-86
2023/01/04 00:52:49;;;;;;;62.80;33.40;;;;;;;-0.06;98.45;101743.48;3459543;84;98623;-86
2023/01/04 00:57:50;;;;;;;65.62;30.52;;;;;;;-0.10;98.43;101735.64;3472916;84;31567;-86
2023/01/04 01:02:50;;;;;;;63.60;32.47;;;;;;;-0.15;98.81;101723.48;3465534;84;99256;-86
2023/01/04 01:07:51;;;;;;;63.30;31.60;;;;;;;-0.17;99.09;101726.19;3467646;84;35201;-86
2023/01/04 01:12:52;;;;;;;61.43;28.97;;;;;;;-0.17;99.03;101730.81;3457167;84;98960;-86
2023/01/04 01:17:53;;;;;;;63.53;30.77;;;;;;;-0.20;99.39;101718.64;3467522;84;34715;-86
2023/01/04 01:22:54;;;;;;;59.83;29.13;;;;;;;-0.21;99.71;101719.16;3462418;84;99009;-85
2023/01/04 01:27:54;;;;;;;54.83;26.23;;;;;;;-0.21;100.00;101723.22;3463957;84;34643;-86
2023/01/04 01:32:55;;;;;;;58.85;26.25;;;;;;;-0.20;100.00;101714.02;3463017;84;99186;-86
2023/01/04 01:37:56;;;;;;;62.03;26.53;;;;;;;-0.17;100.00;101708.60;3469006;84;32791;-86
2023/01/04 01:42:57;;;;;;;50.07;26.90;;;;;;;-0.15;100.00;101691.57;3463175;84;99122;-86
2023/01/04 01:48:11;;;;;;;58.77;26.33;;;;;;;-0.13;100.00;101688.03;3474071;84;32349;-86
2023/01/04 01:53:13;;;;;;;62.15;27.02;;;;;;;-0.12;100.00;101680.18;3455965;84;99208;-86
2023/01/04 01:58:31;;;;;;;58.42;28.07;;;;;;;-0.12;100.00;101669.92;3469240;84;34705;-85
2023/01/04 02:03:38;;;;;;;54.63;25.62;;;;;;;-0.10;100.00;101667.99;3457708;84;99108;-85
2023/01/04 02:08:41;;;;;;;55.00;26.90;;;;;;;-0.08;100.00;101646.08;3465511;84;25959;-86
2023/01/04 02:19:58;;;;;;;56.37;27.98;;;;;;;-0.03;100.00;101637.95;3470831;84;34609;-86
2023/01/04 02:25:18;;;;;;;55.47;27.63;;;;;;;-0.02;100.00;101623.88;3468283;84;98732;-86
2023/01/04 02:30:44;;;;;;;59.23;27.40;;;;;;;-0.02;100.00;101634.97;3472696;83;34770;-86
2023/01/04 02:36:36;;;;;;;56.08;26.30;;;;;;;0.03;100.00;101626.00;3464935;83;99060;-86
2023/01/04 02:42:06;;;;;;;59.13;27.27;;;;;;;0.13;100.00;101614.57;3476544;80;98871;-86
2023/01/04 02:52:55;;;;;;;57.88;28.60;;;;;;;0.32;100.00;101595.25;3471283;84;99091;-86
2023/01/04 02:58:07;;;;;;;59.00;27.87;;;;;;;0.43;100.00;101572.42;3474422;84;32474;-86
2023/01/04 03:08:55;;;;;;;59.18;28.45;;;;;;;0.65;100.00;101587.69;3471555;84;34766;-86
2023/01/04 03:14:05;;;;;;;57.75;27.95;;;;;;;0.78;100.00;101557.22;3431788;84;98769;-87
2023/01/04 03:19:08;;;;;;;55.00;26.90;;;;;;;0.90;100.00;101529.22;3425445;85;34724;-87
2023/01/04 03:51:22;;;;;;;49.75;24.05;;;;;;;1.63;100.00;101522.40;3415336;85;98958;-87
2023/01/04 03:56:25;;;;;;;48.68;22.22;;;;;;;1.74;100.00;101524.41;3424805;86;34619;-88
2023/01/04 04:01:27;;;;;;;50.70;24.20;;;;;;;1.81;100.00;101522.96;3419607;84;98844;-89
2023/01/04 04:11:48;;;;;;;49.67;24.87;;;;;;;1.97;100.00;101524.94;3418358;84;99158;-88
2023/01/04 04:16:48;;;;;;;42.20;22.67;;;;;;;2.05;100.00;101514.76;3408452;86;32273;-90
2023/01/04 04:21:49;;;;;;;48.37;24.03;;;;;;;2.10;100.00;101505.19;3425419;84;98744;-88
2023/01/04 04:26:53;;;;;;;46.87;22.97;;;;;;;2.13;100.00;101474.16;3422777;85;32317;-90
2023/01/04 04:31:54;;;;;;;43.08;22.52;;;;;;;2.15;100.00;101452.16;3389779;84;98796;-88
2023/01/04 04:36:54;;;;;;;40.10;21.20;;;;;;;2.13;100.00;101431.29;3418774;86;33412;-88
2023/01/04 04:41:55;;;;;;;41.90;21.60;;;;;;;2.07;100.00;101414.26;3418507;84;98853;-87
2023/01/04 04:46:56;;;;;;;44.43;22.57;;;;;;;2.05;100.00;101406.97;3423766;85;32391;-87
2023/01/04 04:51:57;;;;;;;42.43;20.60;;;;;;;2.01;100.00;101397.80;3418919;84;98765;-89
2023/01/04 04:56:58;;;;;;;41.60;21.17;;;;;;;1.98;100.00;101386.16;3424074;85;32462;-89
2023/01/04 05:01:58;;;;;;;42.00;20.53;;;;;;;1.93;100.00;101380.03;3413829;84;99049;-88
2023/01/04 05:06:59;;;;;;;37.90;19.67;;;;;;;1.91;100.00;101371.38;3423446;85;32784;-88
2023/01/04 05:17:19;;;;;;;37.83;21.65;;;;;;;1.85;100.00;101367.94;3472155;84;32283;-88
2023/01/04 05:22:19;;;;;;;42.43;21.83;;;;;;;1.84;100.00;101358.19;3463548;83;98803;-88
2023/01/04 05:27:20;;;;;;;40.80;21.90;;;;;;;1.82;100.00;101354.16;3470319;84;25863;-88
2023/01/04 05:32:21;;;;;;;35.77;19.63;;;;;;;1.80;100.00;101355.80;3464576;84;99020;-89
2023/01/04 05:37:22;;;;;;;37.63;19.30;;;;;;;1.76;100.00;101344.48;3469268;84;25599;-89
2023/01/04 05:42:26;;;;;;;39.73;20.27;;;;;;;1.73;100.00;101329.60;3458977;84;98771;-88
2023/01/04 05:47:28;;;;;;;36.48;18.87;;;;;;;1.72;100.00;101332.61;3473868;82;32274;-89
2023/01/04 05:52:29;;;;;;;33.17;18.80;;;;;;;1.69;100.00;101327.79;3464166;83;99134;-89
2023/01/04 05:57:29;;;;;;;28.77;16.67;;;;;;;1.65;100.00;101315.34;3470450;84;25959;-88
2023/01/04 06:02:30;;;;;;;34.37;17.30;;;;;;;1.63;100.00;101312.13;3477986;80;98480;-88
2023/01/04 06:07:32;;;;;;;31.17;17.23;;;;;;;1.60;100.00;101286.14;3474229;84;26080;-88
2023/01/04 06:12:32;;;;;;;34.80;18.53;;;;;;;1.57;100.00;101279.94;3463088;84;99187;-88
2023/01/04 06:17:34;;;;;;;34.20;17.13;;;;;;;1.54;100.00;101260.20;3471896;84;26279;-88
2023/01/04 06:22:35;;;;;;;36.53;17.30;;;;;;;1.52;100.00;101251.54;3466456;84;98924;-88
2023/01/04 06:27:36;;;;;;;34.83;17.07;;;;;;;1.51;100.00;101248.58;3471760;84;26021;-89
2023/01/04 06:32:37;;;;;;;34.67;16.57;;;;;;;1.48;100.00;101240.48;3459360;84;98682;-90
2023/01/04 06:37:39;;;;;;;32.70;17.80;;;;;;;1.46;100.00;101235.92;3471098;84;25905;-86
2023/01/04 06:42:46;;;;;;;33.63;16.50;;;;;;;1.46;100.00;101222.89;3465156;84;99123;-87
2023/01/04 06:47:46;;;;;;;35.17;15.70;;;;;;;1.46;100.00;101207.98;3472688;84;33334;-89
2023/01/04 06:52:47;;;;;;;34.07;16.70;;;;;;;1.45;100.00;101208.55;3470067;80;97814;-92
2023/01/04 06:57:48;;;;;;;28.97;16.03;;;;;;;1.45;100.00;101208.55;3423918;84;26068;-89
2023/01/04 07:02:49;;;;;;;35.50;17.17;;;;;;;1.47;100.00;101209.04;3461735;84;98692;-90
2023/01/04 07:07:50;;;;;;;33.37;18.83;;;;;;;1.51;100.00;101199.22;3465245;84;25758;-91
2023/01/04 07:12:51;;;;;;;36.58;16.95;;;;;;;1.54;100.00;101192.39;3460362;84;98683;-91
2023/01/04 07:17:52;;;;;;;32.97;17.07;;;;;;;1.60;100.00;101183.84;3462443;84;26391;-89
2023/01/04 07:22:53;;;;;;;30.53;15.03;;;;;;;1.66;100.00;101169.64;3460715;84;99213;-89
2023/01/04 07:27:54;;;;;;;32.30;16.13;;;;;;;1.67;100.00;101155.78;3463549;84;25853;-92
2023/01/04 07:32:56;;;;;;;30.50;16.02;;;;;;;1.73;100.00;101148.34;3458671;84;99142;-90
2023/01/04 07:37:57;;;;;;;30.87;15.13;;;;;;;1.81;100.00;101148.44;3460559;84;26291;-86
2023/01/04 07:42:58;;;;;;;29.27;14.17;;;;;;;1.90;100.00;101141.21;3470145;83;97846;-94
2023/01/04 07:47:59;;;;;;;28.97;12.87;;;;;;;2.03;100.00;101129.53;3477643;84;33077;-95
2023/01/04 07:53:01;;;;;;;27.13;13.30;;;;;;;2.21;100.00;101112.87;3468857;84;99031;-93
2023/01/04 07:58:01;;;;;;;36.97;14.67;;;;;;;2.37;100.00;101121.75;3475892;84;33148;-94
2023/01/04 08:03:02;;;;;;;26.67;12.23;;;;;;;2.57;100.00;101104.18;3460772;82;98834;-94
2023/01/04 08:08:04;;;;;;;22.13;11.07;;;;;;;2.74;100.00;101090.72;3476422;83;33089;-91
2023/01/04 08:13:05;;;;;;;23.63;9.73;;;;;;;2.93;100.00;101080.44;3457923;84;98929;-95
2023/01/04 08:18:06;;;;;;;18.10;9.83;;;;;;;3.09;100.00;101063.44;3450271;84;33498;-93
2023/01/04 08:23:07;;;;;;;20.73;9.37;;;;;;;3.23;100.00;101046.45;3449027;84;98833;-90
2023/01/04 08:28:07;;;;;;;19.12;9.35;;;;;;;3.38;100.00;101038.47;3453169;84;33045;-89
2023/01/04 08:33:15;;;;;;;18.37;8.77;;;;;;;3.53;100.00;101023.86;3452470;83;99022;-92
2023/01/04 08:38:16;;;;;;;17.90;8.30;;;;;;;3.64;100.00;101008.84;3451364;83;25604;-92
2023/01/04 08:43:16;;;;;;;19.40;8.83;;;;;;;3.75;100.00;101010.15;3444879;84;98726;-92
2023/01/04 08:48:17;;;;;;;17.07;8.40;;;;;;;3.87;100.00;100994.56;3453783;84;33144;-91
2023/01/04 08:53:18;;;;;;;17.30;8.37;;;;;;;3.99;100.00;100978.39;3456677;84;98702;-95
2023/01/04 08:58:19;;;;;;;18.03;9.33;;;;;;;4.11;100.00;100979.91;3463487;84;32974;-95
2023/01/04 09:03:20;;;;;;;17.47;8.27;;;;;;;4.21;100.00;100970.84;3446880;84;98471;-95
2023/01/04 09:08:22;;;;;;;19.17;8.13;;;;;;;4.34;100.00;100954.91;3465928;84;33902;-89
2023/01/04 09:13:23;;;;;;;24.03;8.70;;;;;;;4.48;100.00;100941.09;3415514;84;99048;-94
2023/01/04 09:18:24;;;;;;;16.70;7.47;;;;;;;4.60;100.00;100928.95;3460881;84;33030;-94
2023/01/04 09:23:24;;;;;;;14.47;6.70;;;;;;;4.71;100.00;100911.12;3431088;84;98907;-90
2023/01/04 09:28:26;;;;;;;17.13;7.27;;;;;;;4.84;99.49;100920.45;3467341;83;31583;-93
2023/01/04 09:33:28;;;;;;;17.50;6.95;;;;;;;4.95;98.41;100897.69;3451394;84;98492;-94
2023/01/04 09:38:31;;;;;;;14.78;6.78;;;;;;;5.07;97.91;100876.78;3458436;84;33084;-90
2023/01/04 09:43:45;;;;;;;14.43;6.85;;;;;;;5.17;97.86;100874.23;3452434;84;98676;-95
2023/01/04 09:48:49;;;;;;;16.37;6.92;;;;;;;5.28;97.14;100836.69;3467525;84;33255;-95
2023/01/04 09:53:55;;;;;;;19.65;7.30;;;;;;;5.36;96.58;100826.27;3458309;84;98674;-96
2023/01/04 09:58:57;;;;;;;;;;;;;;;5.42;96.39;100808.58;3461235;84;25593;-95
2023/01/04 10:04:20;;;;;;;15.95;7.28;;;;;;;5.46;95.70;100782.78;3439444;84;84489;-89
2023/01/04 10:09:21;;;;;;;16.32;7.90;;;;;;;5.49;95.48;100771.98;3458304;83;33057;-94
2023/01/04 10:14:56;;;;;;;17.57;8.23;;;;;;;5.53;95.20;100763.37;3461472;84;98599;-94
2023/01/04 10:20:43;;;;;;;16.73;9.33;;;;;;;5.56;94.73;100759.95;3477842;80;33378;-94
2023/01/04 10:26:07;;;;;;;19.98;8.25;;;;;;;5.61;94.19;100735.73;3470227;84;98325;-94
2023/01/04 10:31:19;;;;;;;17.45;8.83;;;;;;;5.63;94.39;100732.89;3467161;84;98950;-90
2023/01/04 10:36:24;;;;;;;18.50;8.78;;;;;;;5.66;93.75;100721.31;3471248;84;33071;-95
2023/01/04 10:41:30;;;;;;;17.77;8.00;;;;;;;5.69;93.47;100703.45;3440848;84;98642;-93
2023/01/04 10:46:46;;;;;;;19.50;8.55;;;;;;;5.74;93.26;100690.38;3474892;84;25224;-93
2023/01/04 10:52:01;;;;;;;20.40;8.58;;;;;;;5.82;93.19;100681.33;3462075;83;98563;-92
2023/01/04 10:57:14;;;;;;;16.60;8.20;;;;;;;5.87;92.81;100676.20;3473797;84;33488;-91
2023/01/04 11:02:27;;;;;;;15.53;8.37;;;;;;;5.93;92.18;100662.00;3445374;84;98650;-88
2023/01/04 11:07:42;;;;;;;15.85;8.05;;;;;;;5.98;92.48;100654.95;3436565;83;33130;-91
2023/01/04 11:12:44;;;;;;;17.40;7.28;;;;;;;6.04;92.25;100646.75;3470561;84;98520;-94
2023/01/04 11:17:47;;;;;;;18.65;8.43;;;;;;;6.06;92.64;100643.09;3458228;83;33087;-92
2023/01/04 11:23:14;;;;;;;15.93;8.53;;;;;;;6.06;93.20;100636.27;3449410;84;98605;-91
2023/01/04 11:28:37;;;;;;;16.82;9.05;;;;;;;6.05;93.85;100624.34;3460170;84;25988;-96
2023/01/04 11:33:59;;;;;;;15.85;8.78;;;;;;;5.97;94.88;100608.28;3398948;84;98681;-95
2023/01/04 11:39:00;;;;;;;18.80;9.38;;;;;;;5.88;96.25;100582.20;3462378;84;33080;-92
2023/01/04 11:44:05;;;;;;;21.40;9.50;;;;;;;5.74;98.10;100570.80;3457724;83;98809;-91
2023/01/04 11:49:12;;;;;;;21.73;9.63;;;;;;;5.63;99.22;100551.92;3463238;84;25840;-90
2023/01/04 11:54:18;;;;;;;18.65;9.18;;;;;;;5.53;100.00;100524.51;3445247;84;98650;-93
2023/01/04 11:59:20;;;;;;;18.40;8.83;;;;;;;5.48;100.00;100512.45;3458463;83;25693;-92
2023/01/04 12:04:25;;;;;;;20.40;9.35;;;;;;;5.43;100.00;100493.56;3450946;80;98470;-91
2023/01/04 12:09:28;;;;;;;18.65;10.50;;;;;;;5.41;100.00;100474.58;3453016;84;33022;-91
2023/01/04 12:14:34;;;;;;;20.85;10.38;;;;;;;5.38;100.00;100473.88;3457585;84;98744;-93
2023/01/04 12:19:36;;;;;;;21.25;10.58;;;;;;;5.36;100.00;100455.11;3475840;84;25983;-89
2023/01/04 12:24:38;;;;;;;18.35;10.20;;;;;;;5.34;100.00;100431.47;3460378;84;98732;-93
2023/01/04 12:29:44;;;;;;;17.85;8.88;;;;;;;5.35;100.00;100422.14;3466472;84;33085;-91
2023/01/04 12:34:48;;;;;;;18.92;9.25;;;;;;;5.34;100.00;100411.00;3472620;84;98554;-90
2023/01/04 12:39:49;;;;;;;20.82;9.88;;;;;;;5.35;100.00;100397.58;3472638;84;33560;-92
2023/01/04 12:44:55;;;;;;;18.35;9.48;;;;;;;5.36;100.00;100388.25;3468093;84;98791;-92
2023/01/04 12:50:01;;;;;;;20.90;10.08;;;;;;;5.38;100.00;100377.00;3475435;82;25941;-90
2023/01/04 12:55:20;;;;;;;23.38;10.70;;;;;;;5.39;100.00;100358.92;3465535;81;98136;-91
2023/01/04 13:00:20;;;;;;;24.50;10.45;;;;;;;5.42;100.00;100351.42;3476156;84;33075;-94
2023/01/04 13:05:30;;;;;;;22.47;10.10;;;;;;;5.44;100.00;100345.60;3460694;84;98767;-92
2023/01/04 13:10:40;;;;;;;18.48;10.10;;;;;;;5.46;100.00;100330.47;3479977;84;33023;-94
2023/01/04 13:16:11;;;;;;;24.30;10.93;;;;;;;5.47;100.00;100332.09;3460446;84;98877;-93
2023/01/04 13:21:35;;;;;;;20.15;10.45;;;;;;;5.48;100.00;100320.02;3446003;84;99127;-93
2023/01/04 13:26:44;;;;;;;21.23;10.65;;;;;;;5.49;100.00;100297.05;3458576;84;33097;-93
2023/01/04 13:31:53;;;;;;;19.52;10.80;;;;;;;5.54;100.00;100293.27;3441009;84;99262;-90
2023/01/04 13:37:08;;;;;;;19.87;9.93;;;;;;;5.57;100.00;100276.20;3407611;84;33082;-87
2023/01/04 13:42:30;;;;;;;18.85;10.20;;;;;;;5.62;100.00;100273.23;3439370;82;97669;-91
2023/01/04 13:47:35;;;;;;;16.10;9.03;;;;;;;5.65;100.00;100267.06;3456502;83;33463;-88
2023/01/04 13:52:36;;;;;;;20.10;9.93;;;;;;;5.68;100.00;100258.97;3449536;83;98507;-92
2023/01/04 13:57:37;;;;;;;20.10;10.20;;;;;;;5.72;100.00;100255.77;3450978;84;31543;-89
2023/01/04 14:02:38;;;;;;;20.37;12.27;;;;;;;5.74;100.00;100247.23;3440525;84;99168;-93
2023/01/04 14:07:42;;;;;;;20.27;10.40;;;;;;;5.78;100.00;100250.27;3420688;84;31497;-87
2023/01/04 14:12:45;;;;;;;22.62;10.32;;;;;;;5.83;100.00;100246.55;3448758;84;99033;-89
2023/01/04 14:17:55;;;;;;;17.92;9.70;;;;;;;5.87;100.00;100234.56;3427455;85;33065;-93
2023/01/04 14:22:57;;;;;;;16.75;9.58;;;;;;;5.91;100.00;100225.09;3419858;84;98887;-87
2023/01/04 14:28:29;;;;;;;19.55;10.18;;;;;;;5.93;100.00;100221.43;3423188;85;33095;-86
2023/01/04 14:33:38;;;;;;;19.60;10.30;;;;;;;5.97;100.00;100192.28;3419486;85;99227;-91
2023/01/04 14:39:06;;;;;;;21.20;10.85;;;;;;;6.02;100.00;100185.19;3343351;87;33261;-93
2023/01/04 14:44:27;;;;;;;17.77;10.95;;;;;;;6.05;100.00;100177.67;3336061;87;98943;-88
2023/01/04 14:49:28;;;;;;;26.57;12.70;;;;;;;6.09;100.00;100160.21;3425882;85;33102;-95
2023/01/04 14:54:30;;;;;;;21.02;12.70;;;;;;;6.13;100.00;100145.27;3423312;85;98926;-93
2023/01/04 14:59:31;;;;;;;20.92;11.05;;;;;;;6.15;100.00;100127.94;3425830;85;33152;-92
2023/01/04 15:04:32;;;;;;;18.30;10.77;;;;;;;6.16;100.00;100126.22;3424345;85;98880;-91
2023/01/04 15:09:34;;;;;;;21.27;11.57;;;;;;;6.18;100.00;100112.21;3429944;85;31561;-88
2023/01/04 15:14:35;;;;;;;22.43;11.80;;;;;;;6.17;100.00;100104.58;3418811;85;98658;-87
2023/01/04 15:19:37;;;;;;;19.60;11.23;;;;;;;6.19;100.00;100095.47;3456346;84;31560;-88
2023/01/04 15:24:37;;;;;;;16.87;10.73;;;;;;;6.19;100.00;100084.54;3445998;84;98444;-89
2023/01/04 15:29:38;;;;;;;21.83;11.67;;;;;;;6.22;100.00;100092.01;3462639;84;31534;-86
2023/01/04 15:34:39;;;;;;;21.00;10.83;;;;;;;6.24;100.00;100080.73;3452515;84;98982;-90
2023/01/04 15:39:40;;;;;;;20.23;11.20;;;;;;;6.25;100.00;100083.11;3459265;84;31513;-89
2023/01/04 15:44:43;;;;;;;20.90;11.07;;;;;;;6.26;100.00;100065.56;3444923;84;98823;-88
2023/01/04 15:49:43;;;;;;;21.20;12.23;;;;;;;6.30;100.00;100061.54;3459846;84;32049;-88
2023/01/04 15:54:44;;;;;;;22.23;11.03;;;;;;;6.24;100.00;100026.08;3449226;84;98582;-84
2023/01/04 15:59:48;;;;;;;21.00;11.23;;;;;;;6.24;100.00;100026.08;3458648;84;31549;-88
2023/01/04 16:04:49;;;;;;;17.57;10.33;;;;;;;6.36;100.00;100031.41;3448336;84;98901;-87
2023/01/04 16:09:50;;;;;;;20.07;11.03;;;;;;;6.40;100.00;100031.72;3454279;84;31557;-88
2023/01/04 16:14:52;;;;;;;19.50;11.00;;;;;;;6.44;100.00;100012.06;3451641;83;98919;-91
2023/01/04 16:19:53;;;;;;;21.00;11.70;;;;;;;6.48;100.00;100014.30;3434209;85;31435;-89
2023/01/04 16:24:53;;;;;;;21.37;11.12;;;;;;;6.51;100.00;100002.67;3422401;85;98791;-91
2023/01/04 16:29:54;;;;;;;22.50;11.07;;;;;;;6.53;100.00;99994.89;3429304;85;31415;-90
2023/01/04 16:34:55;;;;;;;19.17;10.37;;;;;;;6.56;100.00;99987.34;3423346;84;98534;-88
2023/01/04 16:39:56;;;;;;;19.67;11.53;;;;;;;6.59;100.00;99987.17;3428863;85;32330;-91
2023/01/04 16:44:57;;;;;;;18.80;11.20;;;;;;;6.61;100.00;99979.42;3420771;85;98647;-88
2023/01/04 16:49:58;;;;;;;19.43;11.03;;;;;;;6.62;100.00;99974.16;3426787;85;31405;-90
2023/01/04 16:54:58;;;;;;;21.90;12.23;;;;;;;6.64;100.00;99961.70;3422222;84;98583;-86
2023/01/04 16:59:59;;;;;;;21.37;11.80;;;;;;;6.68;100.00;99960.41;3428451;85;26544;-88
2023/01/04 17:05:00;;;;;;;16.30;9.90;;;;;;;6.70;100.00;99959.48;3416839;85;98539;-88
2023/01/04 17:10:01;;;;;;;19.00;11.25;;;;;;;6.73;100.00;99947.24;3429425;84;28602;-91
2023/01/04 17:15:02;;;;;;;16.77;10.13;;;;;;;6.78;100.00;99943.41;3420868;83;98349;-95
2023/01/04 17:20:05;;;;;;;20.00;11.40;;;;;;;6.82;100.00;99934.70;3457512;84;34648;-95
2023/01/04 17:25:07;;;;;;;16.37;10.37;;;;;;;6.87;100.00;99928.93;3449804;84;98710;-93
2023/01/04 17:30:08;;;;;;;15.23;9.27;;;;;;;6.92;100.00;99930.00;3458820;84;35200;-93
2023/01/04 17:35:09;;;;;;;15.00;9.60;;;;;;;6.98;100.00;99923.06;3454881;84;98553;-95
2023/01/04 17:40:11;;;;;;;15.53;9.67;;;;;;;7.05;100.00;99906.77;3455526;83;25227;-88
2023/01/04 17:45:12;;;;;;;14.83;9.63;;;;;;;7.10;100.00;99898.25;3451864;84;98578;-91
2023/01/04 17:50:14;;;;;;;15.07;9.47;;;;;;;7.16;100.00;99885.84;3458126;84;35202;-89
2023/01/04 17:55:16;;;;;;;15.10;9.90;;;;;;;7.23;100.00;99891.41;3453318;84;98377;-93
2023/01/04 18:00:18;;;;;;;16.48;9.85;;;;;;;7.28;100.00;99872.75;3384936;86;32003;-90
2023/01/04 18:05:18;;;;;;;15.10;9.77;;;;;;;7.33;100.00;99870.27;3445248;84;98135;-94
2023/01/04 18:10:19;;;;;;;15.67;9.83;;;;;;;7.40;100.00;99862.14;3456042;84;25940;-91
2023/01/04 18:15:20;;;;;;;16.07;9.77;;;;;;;7.46;100.00;99845.61;3434040;84;98118;-90
2023/01/04 18:20:21;;;;;;;15.70;9.03;;;;;;;7.51;100.00;99847.46;3453397;84;34724;-90
2023/01/04 18:25:22;;;;;;;19.23;10.50;;;;;;;7.54;100.00;99831.67;3455736;84;98672;-91
2023/01/04 18:30:23;;;;;;;21.63;12.60;;;;;;;7.59;100.00;99829.18;3449236;84;34696;-91
2023/01/04 18:35:24;;;;;;;20.50;12.80;;;;;;;7.61;100.00;99820.81;3441329;84;98606;-93
2023/01/04 18:40:25;;;;;;;21.27;13.07;;;;;;;7.66;100.00;99815.01;3450089;84;35259;-92
2023/01/04 18:45:25;;;;;;;17.52;11.88;;;;;;;7.68;100.00;99808.56;3450707;84;98419;-90
2023/01/04 18:50:26;;;;;;;21.27;12.83;;;;;;;7.69;100.00;99797.81;3460239;84;25889;-92
2023/01/04 18:55:27;;;;;;;25.53;15.60;;;;;;;7.71;100.00;99781.81;3461140;81;98710;-92
2023/01/04 19:00:28;;;;;;;20.27;13.30;;;;;;;7.70;100.00;99780.21;3453078;84;32322;-95
2023/01/04 19:05:29;;;;;;;24.40;15.15;;;;;;;7.70;100.00;99782.19;3454574;84;98690;-89
2023/01/04 19:10:30;;;;;;;20.53;13.97;;;;;;;7.71;100.00;99772.23;3459235;84;32309;-91
2023/01/04 19:15:31;;;;;;;17.20;11.40;;;;;;;7.72;100.00;99770.27;3444359;84;98430;-96
2023/01/04 19:20:31;;;;;;;16.53;10.73;;;;;;;7.73;100.00;99764.98;3458610;84;32374;-96
2023/01/04 19:25:32;;;;;;;19.97;11.53;;;;;;;7.75;100.00;99758.58;3449129;84;98500;-94
2023/01/04 19:30:39;;;;;;;15.38;9.73;;;;;;;7.75;100.00;99755.23;3459218;84;32812;-91
2023/01/04 19:35:43;;;;;;;20.35;10.80;;;;;;;7.75;100.00;99749.76;3450201;84;98562;-91
2023/01/04 19:40:45;;;;;;;16.60;10.58;;;;;;;7.79;100.00;99738.86;3461731;84;32248;-95
2023/01/04 19:45:46;;;;;;;18.73;11.60;;;;;;;7.81;100.00;99734.56;3453933;84;98395;-96
2023/01/04 19:50:47;;;;;;;16.23;10.57;;;;;;;7.79;100.00;99709.51;3463232;81;25887;-93
2023/01/04 19:55:54;;;;;;;16.90;10.47;;;;;;;7.82;100.00;99711.51;3450845;84;98663;-96
2023/01/04 20:00:55;;;;;;;15.40;10.00;;;;;;;7.85;100.00;99706.63;3454446;84;32346;-92
2023/01/04 20:06:05;;;;;;;16.03;10.03;;;;;;;7.87;100.00;99714.48;3448137;84;98799;-96
2023/01/04 20:11:06;;;;;;;16.42;10.40;;;;;;;7.89;100.00;99701.19;3456817;84;98938;-93
2023/01/04 20:16:08;;;;;;;21.73;10.43;;;;;;;7.90;100.00;99696.70;3457324;84;32253;-91
2023/01/04 20:21:11;;;;;;;15.37;9.70;;;;;;;7.93;100.00;99689.69;3450322;84;98575;-95
2023/01/04 20:26:15;;;;;;;14.33;8.43;;;;;;;7.94;100.00;99678.36;3461330;84;32257;-90
2023/01/04 20:31:17;;;;;;;13.70;8.43;;;;;;;7.95;100.00;99677.19;3449946;84;98647;-94
2023/01/04 20:36:21;;;;;;;14.03;7.53;;;;;;;7.97;100.00;99680.92;3445795;84;32236;-95
2023/01/04 20:41:23;;;;;;;15.40;7.25;;;;;;;7.99;100.00;99675.28;3450754;84;98812;-92
2023/01/04 20:46:29;;;;;;;11.80;7.17;;;;;;;8.02;100.00;99670.99;3455108;84;32327;-93
2023/01/04 20:51:30;;;;;;;11.30;6.33;;;;;;;8.07;100.00;99674.76;3444169;84;98761;-88
2023/01/04 20:56:36;;;;;;;10.33;4.97;;;;;;;8.11;100.00;99674.19;3463937;84;26359;-90
2023/01/04 21:01:35;;;;;;;9.70;3.97;;;;;;;8.17;100.00;99668.56;3448411;84;98748;-93
2023/01/04 21:06:36;;;;;;;9.58;2.85;;;;;;;8.24;100.00;99652.22;3459154;83;32246;-93
2023/01/04 21:11:37;;;;;;;5.53;2.50;;;;;;;8.34;100.00;99648.78;3443978;84;98370;-89
2023/01/04 21:16:40;;;;;;;6.53;3.17;;;;;;;8.46;100.00;99643.75;3450987;84;25996;-90
2023/01/04 21:21:41;;;;;;;8.20;2.58;;;;;;;8.55;100.00;99637.94;3442711;84;98870;-88
2023/01/04 21:26:42;;;;;;;7.10;2.70;;;;;;;8.61;100.00;99616.62;3457657;83;26051;-90
2023/01/04 21:31:43;;;;;;;9.73;2.30;;;;;;;8.67;100.00;99621.95;3406625;85;98147;-91
2023/01/04 21:36:43;;;;;;;7.47;2.80;;;;;;;8.63;100.00;99595.69;3457404;83;26018;-91
2023/01/04 21:41:45;;;;;;;5.37;2.20;;;;;;;8.63;100.00;99595.69;3443141;84;98509;-90
2023/01/04 21:46:46;;;;;;;6.90;2.27;;;;;;;8.75;100.00;99609.06;3451786;84;25740;-92
2023/01/04 21:51:47;;;;;;;5.90;2.50;;;;;;;8.79;100.00;99600.27;3448270;84;98942;-91
2023/01/04 21:56:49;;;;;;;5.67;2.40;;;;;;;8.81;100.00;99586.38;3457268;84;26314;-91
2023/01/04 22:01:49;;;;;;;7.70;3.27;;;;;;;8.84;100.00;99579.34;3454095;84;98579;-89
2023/01/04 22:06:50;;;;;;;7.00;2.70;;;;;;;8.87;100.00;99567.57;3455048;84;25958;-90
2023/01/04 22:11:51;;;;;;;6.47;2.60;;;;;;;8.92;100.00;99552.91;3447074;84;98485;-92
2023/01/04 22:16:52;;;;;;;7.87;2.60;;;;;;;8.98;100.00;99556.84;3451466;83;33167;-93
2023/01/04 22:21:52;;;;;;;8.07;2.80;;;;;;;9.02;100.00;99547.25;3448470;84;98355;-93
2023/01/04 22:26:53;;;;;;;3.83;1.87;;;;;;;9.04;100.00;99551.18;3467427;80;33160;-92
2023/01/04 22:31:54;;;;;;;5.45;2.20;;;;;;;9.09;100.00;99545.31;3449940;84;98441;-92
2023/01/04 22:36:55;;;;;;;6.67;2.40;;;;;;;9.13;100.00;99528.28;3460422;84;33050;-93
2023/01/04 22:41:56;;;;;;;5.20;2.27;;;;;;;9.16;100.00;99541.81;3445921;84;98390;-91
2023/01/04 22:46:57;;;;;;;4.33;1.87;;;;;;;9.14;100.00;99533.95;3447898;84;33041;-93
2023/01/04 22:51:58;;;;;;;5.47;1.77;;;;;;;9.13;100.00;99536.51;3445878;85;98479;-89
2023/01/04 22:56:59;;;;;;;4.57;2.17;;;;;;;9.14;100.00;99545.52;3442305;84;32139;-90
2023/01/04 23:02:00;;;;;;;3.98;1.90;;;;;;;9.16;100.00;99544.55;3446402;84;98561;-94
2023/01/04 23:07:01;;;;;;;5.13;2.40;;;;;;;9.18;100.00;99547.69;3445129;84;31578;-94
2023/01/04 23:12:01;;;;;;;3.47;1.60;;;;;;;9.20;100.00;99538.47;3439283;84;98449;-87
2023/01/04 23:17:02;;;;;;;3.43;1.83;;;;;;;9.22;100.00;99534.16;3449755;84;31576;-92
2023/01/04 23:22:03;;;;;;;6.43;2.47;;;;;;;9.23;100.00;99529.47;3414853;84;98818;-96
2023/01/04 23:27:04;;;;;;;3.77;2.00;;;;;;;9.22;100.00;99525.92;3385334;85;31465;-91
2023/01/04 23:32:05;;;;;;;4.80;2.17;;;;;;;9.22;100.00;99515.55;3393320;85;98129;-87
2023/01/04 23:37:06;;;;;;;4.27;2.00;;;;;;;9.18;100.00;99519.66;3413507;85;31450;-91
2023/01/04 23:42:07;;;;;;;4.77;1.83;;;;;;;9.18;100.00;99509.25;3415829;84;98553;-92
2023/01/04 23:47:09;;;;;;;6.06;2.12;;;;;;;9.17;100.00;99502.97;3418010;85;32142;-89
2023/01/04 23:52:10;;;;;;;7.20;2.10;;;;;;;9.15;100.00;99509.45;3417028;85;98479;-89
2023/01/04 23:57:11;;;;;;;5.33;2.00;;;;;;;9.15;100.00;99500.41;3421267;85;25642;-88
